AirNav   Air Wisconsin pilot careers
 
 454 users online  

JLA Quartz Creek Airport
Cooper Landing, Alaska, USA

GOING TO COOPER LANDING?


FAA INFORMATION EFFECTIVE 11 OCTOBER 2018

Location

FAA Identifier: JLA
Lat/Long: 60-29-03.3500N / 149-43-22.4400W
60-29.055833N / 149-43.374000W
60.4842639 / -149.7229000
(estimated)
Elevation: 466 ft. / 142 m (estimated)
Variation: 25E (1985)
From city: 3 miles E of COOPER LANDING, AK
Time zone: UTC -8 (UTC -9 during Standard Time)
Zip code: 99572

Airport Operations

Airport use: Open to the public
Control tower: no
ARTCC: ANCHORAGE CENTER
FSS: KENAI FLIGHT SERVICE STATION [907-283-8469]
NOTAMs facility: ENA (NOTAM-D service available)
Attendance: UNATNDD
Wind indicator: yes, WINDSOCK IS BELOW TREELINE AND MAY BE UNRELIABLE.
Segmented circle: no

Airport Communications

CTAF: 122.9

Nearby radio navigation aids

NDB name  Hdg/Dist  Freq  Var  ID
SOLDOTNA070/34.234619EOLT --- .-.. -

Airport Services

Parking: tiedowns
Airframe service: NONE
Powerplant service: NONE
Bottled oxygen: NONE
Bulk oxygen: NONE

Runway Information

Runway 4/22

Dimensions: 2200 x 60 ft. / 671 x 18 m
Surface: gravel/dirt, in good condition
Runway edge markings: RY 04/22 MARKED WITH REFLECTIVE THLD PANELS.
Gradient: NORTHEAST
RUNWAY 4  RUNWAY 22
Latitude: 60-28.956500N60-29.155167N
Longitude: 149-43.679333W149-43.068667W
Elevation: 459.0 ft.466.0 ft.
Gradient: 0.3% UP0.1%
Traffic pattern: leftleft
Runway heading: 032 magnetic, 057 true212 magnetic, 237 true
Obstructions: 40 ft. trees, 120 ft. right of centerline
MTN LCTD 2 SM FM APCH END.
4 ft. brush, 117 ft. left and right of centerline

Airport Ownership and Management from official FAA records

Ownership: Publicly-owned
Owner: ALASKA DOT&PF CENTRAL REGION
P O BOX 196900
ANCHORAGE, AK 99519-6900
Phone 907-269-0770
Manager: SEAN MONTGOMERY/CARL HIGH
STATE OF ALASKA - DOTPF, P.O. BOX 1327
SOLDOTNA, AK 99669
Phone 907-262-2199

Airport Operational Statistics

Aircraft based on the field: 3
Single engine airplanes: 3
    
Aircraft operations: avg 38/month *
89% transient general aviation
11% local general aviation
* for 12-month period ending 31 December 2017

Additional Remarks

RY 04/22 EDGES NOT MKD.
STATE MAINTENANCE ON IRREGULAR BASIS, RCMD VISUAL INSPECTION PRIOR TO LANDING.
WX CAMERA AVBL ON INTERNET AT HTTP://AVCAMS.FAA.GOV

Instrument Procedures

There are no published instrument procedures at JLA.

Some nearby airports with instrument procedures:

PAWD - Seward Airport (23 nm SE)
PASX - Soldotna Airport (39 nm W)
PANC - Ted Stevens Anchorage International Airport (42 nm N)
PAMR - Merrill Field Airport (44 nm N)
PAEN - Kenai Municipal Airport (45 nm W)
 
Loc | Ops | Rwys | IFR | FBO | Links
Com | Nav | Svcs | Stats | Notes

Crowley
 
Area around JLA (Quartz Creek Airport)
 
Road maps at: MapQuest Bing Google
 
Aerial photo
WARNING: Photo may not be current or correct
Aerial photo of JLA (Quartz Creek Airport)
Do you have a better or more recent aerial photo of Quartz Creek Airport that you would like to share? If so, please send us your photo.

 
Sectional chart

 
Airport distance calculator
Flying to Quartz Creek Airport? Find the distance to fly.

From to JLA

Sunrise and sunset
Times for 17-Oct-2018
 Local
(UTC-8)
 Zulu
(UTC)
Morning civil twilight08:0316:03
Sunrise08:4616:46
Sunset18:4302:43
Evening civil twilight19:2603:26

Current date and time
Zulu (UTC)  17-Oct-2018 10:16:51
Local (UTC-8)  17-Oct-2018 02:16:51
 
METAR
PAWD 
24nm S 
170953Z AUTO 21005KT 10SM -RA FEW026 BKN034 OVC044 08/07 A2958 RMK AO2 PK WND 21029/0908 SLP018 P0009 T00830072 TSNO $
PATO 
31nm NE 
170953Z AUTO 15007KT 120V190 8SM -RA SCT030 OVC040 08/06 A2960 RMK AO2 SLP024 P0002 T00830061 TSNO
PASX 
39nm W 
170956Z AUTO 00000KT 10SM FEW055 06/06 A2954 RMK AO2 RAE52 SLP013 P0001 T00560056
PANC 
42nm N 
170953Z 15018G25KT 10SM BKN055 BKN070 BKN140 11/05 A2952 RMK AO2 PK WND 16032/0932 RAB12E47 SLP996 P0000 T01110050
PALH 
43nm N 
170953Z 17010G15KT 10SM FEW060 SCT075 OVC090 10/04 A2953 RMK AO2 RAB13E42 SLP000 P0000 T01000039
PAMR 
44nm N 
170953Z 00000KT 10SM -RA BKN065 OVC090 10/04 A2952 RMK AO2 RAB12 SLP998 P0000 T01000039
PAEN 
45nm W 
170953Z AUTO 05004KT 10SM -RA OVC046 07/07 A2952 RMK AO2 SLP998 P0005 T00720067 TSNO
PAED 
46nm N 
170956Z 31006KT 10SM -DZ BKN044 09/06 A2952 RMK AO2A DZB23E32DZB47 SLP992 P0000 T00870058
PAFR 
47nm N 
170958Z AUTO 14008G16KT 10SM FEW042 SCT050 BKN060 OVC075 12/02 A2951 RMK AO2 RAB28E38 SLP999 P0000 T01150017
TAF
PANC 
42nm N 
170523Z 1706/1812 15012G20KT P6SM VCSH SCT050 BKN070
PAEN 
45nm W 
170523Z 1706/1806 VRB06KT P6SM -SHRA BKN035 OVC050
PAED 
46nm N 
170300Z 1703/1809 35009KT 9999 SCT055 BKN070 610707 QNH2944INS BECMG 1704/1705 16009KT 9000 -SHRA SCT055 BKN070 610707 QNH2944INS BECMG 1718/1719 12006KT 9999 VCSH BKN060 610608 QNH2956INS TX11/1703Z TN05/1712Z
NOTAMs
Click for the latest NOTAMs
NOTAMs are issued by the DoD/FAA and will open in a separate window not controlled by AirNav.

 

 
 

Would you like to see your business listed on this page?

 If your business provides an interesting product or service to pilots, flight crews, aircraft, or users of the Quartz Creek Airport, you should consider listing it here.  To start the listing process, click on the button below
 
Add a business
 

Other Pages about Quartz Creek Airport

Update a link
 
Copyright © AirNav, LLC. All rights reserved. Privacy Policy  Contact